sensor_id;sensor_type;location;lat;lon;timestamp;P1;durP1;ratioP1;P2;durP2;ratioP2
32788;SDS011;19141;48.980;8.410;2023-03-01T05:22:32;3.05;;;2.67;;
32788;SDS011;19141;48.980;8.410;2023-03-01T05:24:57;5.88;;;2.83;;
32788;SDS011;19141;48.980;8.410;2023-03-01T05:27:23;8.10;;;3.85;;
32788;SDS011;19141;48.980;8.410;2023-03-01T05:29:48;7.70;;;4.35;;
32788;SDS011;19141;48.980;8.410;2023-03-01T05:32:13;5.72;;;3.78;;
32788;SDS011;19141;48.980;8.410;2023-03-01T05:34:40;7.05;;;4.53;;
32788;SDS011;19141;48.980;8.410;2023-03-01T05:37:06;7.18;;;4.13;;
32788;SDS011;19141;48.980;8.410;2023-03-01T05:39:32;4.78;;;3.47;;
32788;SDS011;19141;48.980;8.410;2023-03-01T05:41:59;6.75;;;4.35;;
32788;SDS011;19141;48.980;8.410;2023-03-01T05:44:25;5.45;;;4.28;;
32788;SDS011;19141;48.980;8.410;2023-03-01T05:46:51;5.60;;;3.92;;
32788;SDS011;19141;48.980;8.410;2023-03-01T05:49:16;7.30;;;4.65;;
32788;SDS011;19141;48.980;8.410;2023-03-01T05:51:43;5.63;;;3.55;;
32788;SDS011;19141;48.980;8.410;2023-03-01T05:54:12;7.05;;;4.03;;
32788;SDS011;19141;48.980;8.410;2023-03-01T05:56:37;6.60;;;4.03;;
32788;SDS011;19141;48.980;8.410;2023-03-01T05:59:03;9.65;;;3.88;;
32788;SDS011;19141;48.980;8.410;2023-03-01T06:01:33;6.75;;;4.50;;
32788;SDS011;19141;48.980;8.410;2023-03-01T06:03:59;8.48;;;4.53;;
32788;SDS011;19141;48.980;8.410;2023-03-01T06:06:24;6.75;;;5.13;;
32788;SDS011;19141;48.980;8.410;2023-03-01T06:08:50;4.28;;;3.45;;
32788;SDS011;19141;48.980;8.410;2023-03-01T06:11:16;5.70;;;4.90;;
32788;SDS011;19141;48.980;8.410;2023-03-01T06:13:42;6.75;;;4.70;;
32788;SDS011;19141;48.980;8.410;2023-03-01T06:16:09;3.67;;;3.15;;
32788;SDS011;19141;48.980;8.410;2023-03-01T06:18:35;8.77;;;5.28;;
32788;SDS011;19141;48.980;8.410;2023-03-01T06:21:01;7.35;;;4.15;;
32788;SDS011;19141;48.980;8.410;2023-03-01T06:23:27;9.07;;;5.22;;
32788;SDS011;19141;48.980;8.410;2023-03-01T06:25:52;6.43;;;4.35;;
32788;SDS011;19141;48.980;8.410;2023-03-01T06:28:18;7.90;;;5.25;;
32788;SDS011;19141;48.980;8.410;2023-03-01T06:30:44;8.90;;;3.95;;
32788;SDS011;19141;48.980;8.410;2023-03-01T06:33:09;5.50;;;4.20;;
32788;SDS011;19141;48.980;8.410;2023-03-01T06:35:35;4.80;;;4.13;;
32788;SDS011;19141;48.980;8.410;2023-03-01T06:38:01;7.13;;;4.38;;
32788;SDS011;19141;48.980;8.410;2023-03-01T06:40:28;8.63;;;5.17;;
32788;SDS011;19141;48.980;8.410;2023-03-01T06:42:54;5.63;;;4.68;;
32788;SDS011;19141;48.980;8.410;2023-03-01T06:45:20;6.20;;;4.35;;
32788;SDS011;19141;48.980;8.410;2023-03-01T06:47:46;7.28;;;4.93;;
32788;SDS011;19141;48.980;8.410;2023-03-01T06:50:12;7.60;;;4.43;;
32788;SDS011;19141;48.980;8.410;2023-03-01T06:52:38;9.15;;;4.90;;
32788;SDS011;19141;48.980;8.410;2023-03-01T06:55:04;6.30;;;4.55;;
32788;SDS011;19141;48.980;8.410;2023-03-01T06:57:30;8.75;;;4.88;;
32788;SDS011;19141;48.980;8.410;2023-03-01T06:59:56;13.70;;;6.32;;
32788;SDS011;19141;48.980;8.410;2023-03-01T07:02:21;8.38;;;5.60;;
32788;SDS011;19141;48.980;8.410;2023-03-01T07:04:50;8.50;;;4.40;;
32788;SDS011;19141;48.980;8.410;2023-03-01T07:07:16;5.75;;;4.40;;
32788;SDS011;19141;48.980;8.410;2023-03-01T07:09:43;6.67;;;4.20;;
32788;SDS011;19141;48.980;8.410;2023-03-01T07:12:11;7.47;;;4.80;;
32788;SDS011;19141;48.980;8.410;2023-03-01T07:14:37;6.20;;;4.70;;
32788;SDS011;19141;48.980;8.410;2023-03-01T07:17:02;7.38;;;5.00;;
32788;SDS011;19141;48.980;8.410;2023-03-01T07:19:27;6.72;;;4.63;;
32788;SDS011;19141;48.980;8.410;2023-03-01T07:21:53;7.68;;;4.57;;
32788;SDS011;19141;48.980;8.410;2023-03-01T07:24:19;9.93;;;4.63;;
32788;SDS011;19141;48.980;8.410;2023-03-01T07:26:47;6.13;;;3.67;;
32788;SDS011;19141;48.980;8.410;2023-03-01T07:29:13;7.18;;;4.38;;
32788;SDS011;19141;48.980;8.410;2023-03-01T07:31:39;9.98;;;3.75;;
32788;SDS011;19141;48.980;8.410;2023-03-01T07:34:04;8.73;;;4.85;;
32788;SDS011;19141;48.980;8.410;2023-03-01T07:36:29;6.10;;;3.28;;
32788;SDS011;19141;48.980;8.410;2023-03-01T07:38:55;6.93;;;3.47;;
32788;SDS011;19141;48.980;8.410;2023-03-01T07:41:21;10.23;;;5.40;;
32788;SDS011;19141;48.980;8.410;2023-03-01T07:43:46;7.72;;;4.88;;
32788;SDS011;19141;48.980;8.410;2023-03-01T07:46:12;6.75;;;4.63;;
32788;SDS011;19141;48.980;8.410;2023-03-01T07:48:37;8.25;;;4.45;;
32788;SDS011;19141;48.980;8.410;2023-03-01T07:51:03;6.95;;;4.65;;
32788;SDS011;19141;48.980;8.410;2023-03-01T07:53:31;8.05;;;4.82;;
32788;SDS011;19141;48.980;8.410;2023-03-01T07:56:09;7.88;;;4.60;;
32788;SDS011;19141;48.980;8.410;2023-03-01T07:58:40;7.03;;;4.15;;
32788;SDS011;19141;48.980;8.410;2023-03-01T08:01:11;9.73;;;4.75;;
32788;SDS011;19141;48.980;8.410;2023-03-01T08:03:39;8.88;;;4.47;;
32788;SDS011;19141;48.980;8.410;2023-03-01T08:06:06;7.40;;;4.00;;
32788;SDS011;19141;48.980;8.410;2023-03-01T08:08:33;7.43;;;4.68;;
32788;SDS011;19141;48.980;8.410;2023-03-01T08:11:00;10.43;;;4.55;;
32788;SDS011;19141;48.980;8.410;2023-03-01T08:13:27;7.97;;;4.90;;
32788;SDS011;19141;48.980;8.410;2023-03-01T08:15:52;11.13;;;5.47;;
32788;SDS011;19141;48.980;8.410;2023-03-01T08:18:18;8.77;;;4.40;;
32788;SDS011;19141;48.980;8.410;2023-03-01T08:20:45;8.90;;;4.82;;
32788;SDS011;19141;48.980;8.410;2023-03-01T08:23:11;7.57;;;4.43;;
32788;SDS011;19141;48.980;8.410;2023-03-01T08:25:36;8.45;;;4.85;;
32788;SDS011;19141;48.980;8.410;2023-03-01T08:28:03;9.88;;;5.38;;
32788;SDS011;19141;48.980;8.410;2023-03-01T08:30:29;8.45;;;4.47;;
32788;SDS011;19141;48.980;8.410;2023-03-01T08:32:54;6.55;;;4.47;;
32788;SDS011;19141;48.980;8.410;2023-03-01T08:35:20;8.38;;;4.68;;
32788;SDS011;19141;48.980;8.410;2023-03-01T08:37:46;7.32;;;4.45;;
32788;SDS011;19141;48.980;8.410;2023-03-01T08:40:11;9.82;;;4.60;;
32788;SDS011;19141;48.980;8.410;2023-03-01T08:42:38;9.87;;;5.03;;
32788;SDS011;19141;48.980;8.410;2023-03-01T08:45:05;9.52;;;5.78;;
32788;SDS011;19141;48.980;8.410;2023-03-01T08:47:30;9.43;;;5.68;;
32788;SDS011;19141;48.980;8.410;2023-03-01T08:49:58;12.32;;;5.47;;
32788;SDS011;19141;48.980;8.410;2023-03-01T08:52:24;7.88;;;4.82;;
32788;SDS011;19141;48.980;8.410;2023-03-01T08:54:49;7.78;;;4.70;;
32788;SDS011;19141;48.980;8.410;2023-03-01T08:57:15;8.10;;;4.95;;
32788;SDS011;19141;48.980;8.410;2023-03-01T08:59:40;12.18;;;5.60;;
32788;SDS011;19141;48.980;8.410;2023-03-01T09:02:10;8.73;;;5.80;;
32788;SDS011;19141;48.980;8.410;2023-03-01T09:04:38;7.75;;;4.95;;
32788;SDS011;19141;48.980;8.410;2023-03-01T09:07:03;10.52;;;5.32;;
32788;SDS011;19141;48.980;8.410;2023-03-01T09:09:29;7.93;;;4.63;;
32788;SDS011;19141;48.980;8.410;2023-03-01T09:11:54;10.95;;;4.80;;
32788;SDS011;19141;48.980;8.410;2023-03-01T09:14:19;8.57;;;4.75;;
32788;SDS011;19141;48.980;8.410;2023-03-01T09:16:45;8.40;;;4.55;;
32788;SDS011;19141;48.980;8.410;2023-03-01T09:19:11;5.97;;;5.00;;
32788;SDS011;19141;48.980;8.410;2023-03-01T09:21:37;10.15;;;5.63;;
32788;SDS011;19141;48.980;8.410;2023-03-01T09:24:02;7.68;;;5.15;;
32788;SDS011;19141;48.980;8.410;2023-03-01T09:26:28;12.73;;;6.47;;
32788;SDS011;19141;48.980;8.410;2023-03-01T09:28:54;9.63;;;5.05;;
32788;SDS011;19141;48.980;8.410;2023-03-01T09:31:21;10.68;;;5.05;;
32788;SDS011;19141;48.980;8.410;2023-03-01T09:33:49;8.23;;;5.05;;
32788;SDS011;19141;48.980;8.410;2023-03-01T09:36:16;10.15;;;5.07;;
32788;SDS011;19141;48.980;8.410;2023-03-01T09:38:46;8.80;;;5.45;;
32788;SDS011;19141;48.980;8.410;2023-03-01T09:44:03;10.05;;;4.85;;
32788;SDS011;19141;48.980;8.410;2023-03-01T09:46:40;7.45;;;4.55;;
32788;SDS011;19141;48.980;8.410;2023-03-01T09:49:15;10.95;;;4.95;;
32788;SDS011;19141;48.980;8.410;2023-03-01T09:51:47;14.23;;;5.93;;
32788;SDS011;19141;48.980;8.410;2023-03-01T09:54:20;11.68;;;6.03;;
32788;SDS011;19141;48.980;8.410;2023-03-01T10:02:38;6.47;;;4.85;;
32788;SDS011;19141;48.980;8.410;2023-03-01T10:05:26;9.23;;;5.82;;
32788;SDS011;19141;48.980;8.410;2023-03-01T10:10:51;10.40;;;6.18;;
32788;SDS011;19141;48.980;8.410;2023-03-01T10:15:54;9.10;;;4.80;;
32788;SDS011;19141;48.980;8.410;2023-03-01T10:18:24;8.88;;;5.82;;
32788;SDS011;19141;48.980;8.410;2023-03-01T10:20:53;7.72;;;5.20;;
32788;SDS011;19141;48.980;8.410;2023-03-01T10:23:22;8.02;;;5.63;;
32788;SDS011;19141;48.980;8.410;2023-03-01T10:31:08;9.15;;;5.07;;
32788;SDS011;19141;48.980;8.410;2023-03-01T10:33:38;10.27;;;5.90;;
32788;SDS011;19141;48.980;8.410;2023-03-01T10:36:07;9.43;;;5.53;;
32788;SDS011;19141;48.980;8.410;2023-03-01T10:38:47;7.60;;;5.53;;
32788;SDS011;19141;48.980;8.410;2023-03-01T10:41:17;11.05;;;6.03;;
32788;SDS011;19141;48.980;8.410;2023-03-01T10:43:47;10.25;;;6.55;;
32788;SDS011;19141;48.980;8.410;2023-03-01T10:51:45;10.85;;;6.82;;
32788;SDS011;19141;48.980;8.410;2023-03-01T10:56:57;10.57;;;6.57;;
32788;SDS011;19141;48.980;8.410;2023-03-01T10:59:31;11.20;;;5.97;;
32788;SDS011;19141;48.980;8.410;2023-03-01T11:05:00;9.13;;;6.18;;
32788;SDS011;19141;48.980;8.410;2023-03-01T11:07:26;10.90;;;7.18;;
32788;SDS011;19141;48.980;8.410;2023-03-01T11:09:52;9.68;;;6.80;;
32788;SDS011;19141;48.980;8.410;2023-03-01T11:12:17;9.95;;;6.18;;
32788;SDS011;19141;48.980;8.410;2023-03-01T11:14:49;10.50;;;5.85;;
32788;SDS011;19141;48.980;8.410;2023-03-01T11:17:35;10.35;;;6.10;;
32788;SDS011;19141;48.980;8.410;2023-03-01T11:22:40;9.40;;;6.57;;
32788;SDS011;19141;48.980;8.410;2023-03-01T11:25:17;11.43;;;6.60;;
32788;SDS011;19141;48.980;8.410;2023-03-01T11:27:46;11.05;;;6.72;;
32788;SDS011;19141;48.980;8.410;2023-03-01T11:30:18;9.32;;;7.03;;
32788;SDS011;19141;48.980;8.410;2023-03-01T11:32:46;9.70;;;5.97;;
32788;SDS011;19141;48.980;8.410;2023-03-01T11:35:18;14.63;;;7.68;;
32788;SDS011;19141;48.980;8.410;2023-03-01T11:37:57;10.20;;;6.38;;
32788;SDS011;19141;48.980;8.410;2023-03-01T11:40:32;10.52;;;7.00;;
32788;SDS011;19141;48.980;8.410;2023-03-01T11:43:16;10.82;;;5.95;;
32788;SDS011;19141;48.980;8.410;2023-03-01T11:49:08;9.82;;;6.70;;
32788;SDS011;19141;48.980;8.410;2023-03-01T11:55:12;9.75;;;6.82;;
32788;SDS011;19141;48.980;8.410;2023-03-01T12:00:44;10.35;;;6.32;;
32788;SDS011;19141;48.980;8.410;2023-03-01T12:11:54;9.88;;;6.45;;
32788;SDS011;19141;48.980;8.410;2023-03-01T12:19:56;8.10;;;6.15;;
32788;SDS011;19141;48.980;8.410;2023-03-01T12:25:18;10.15;;;6.85;;
32788;SDS011;19141;48.980;8.410;2023-03-01T12:27:54;12.85;;;6.28;;
32788;SDS011;19141;48.980;8.410;2023-03-01T12:30:27;10.75;;;6.75;;
32788;SDS011;19141;48.980;8.410;2023-03-01T12:35:23;9.85;;;6.72;;
32788;SDS011;19141;48.980;8.410;2023-03-01T12:38:16;10.07;;;6.78;;
32788;SDS011;19141;48.980;8.410;2023-03-01T12:41:21;10.48;;;6.38;;
32788;SDS011;19141;48.980;8.410;2023-03-01T12:43:55;10.48;;;6.60;;
32788;SDS011;19141;48.980;8.410;2023-03-01T12:46:52;11.23;;;6.95;;
32788;SDS011;19141;48.980;8.410;2023-03-01T12:50:10;11.30;;;6.75;;
32788;SDS011;19141;48.980;8.410;2023-03-01T12:55:00;11.25;;;6.70;;
32788;SDS011;19141;48.980;8.410;2023-03-01T12:57:31;9.38;;;5.97;;
32788;SDS011;19141;48.980;8.410;2023-03-01T13:02:54;9.25;;;5.95;;
32788;SDS011;19141;48.980;8.410;2023-03-01T13:10:55;8.13;;;6.00;;
32788;SDS011;19141;48.980;8.410;2023-03-01T13:13:25;9.80;;;6.88;;
32788;SDS011;19141;48.980;8.410;2023-03-01T13:15:52;10.27;;;6.25;;
32788;SDS011;19141;48.980;8.410;2023-03-01T13:20:45;11.63;;;6.43;;
32788;SDS011;19141;48.980;8.410;2023-03-01T13:31:02;10.35;;;6.53;;
32788;SDS011;19141;48.980;8.410;2023-03-01T13:35:57;10.82;;;6.25;;
32788;SDS011;19141;48.980;8.410;2023-03-01T13:41:06;12.07;;;6.63;;
32788;SDS011;19141;48.980;8.410;2023-03-01T13:43:42;12.47;;;7.80;;
32788;SDS011;19141;48.980;8.410;2023-03-01T13:46:10;10.35;;;6.82;;
32788;SDS011;19141;48.980;8.410;2023-03-01T13:48:42;9.18;;;6.22;;
32788;SDS011;19141;48.980;8.410;2023-03-01T13:51:11;8.10;;;5.93;;
32788;SDS011;19141;48.980;8.410;2023-03-01T13:53:41;10.57;;;6.55;;
32788;SDS011;19141;48.980;8.410;2023-03-01T13:56:17;12.02;;;6.43;;
32788;SDS011;19141;48.980;8.410;2023-03-01T13:58:53;9.25;;;6.35;;
32788;SDS011;19141;48.980;8.410;2023-03-01T14:01:27;10.00;;;6.53;;
32788;SDS011;19141;48.980;8.410;2023-03-01T14:03:56;9.57;;;6.00;;
32788;SDS011;19141;48.980;8.410;2023-03-01T14:06:23;13.07;;;7.15;;
32788;SDS011;19141;48.980;8.410;2023-03-01T14:09:14;9.48;;;5.72;;
32788;SDS011;19141;48.980;8.410;2023-03-01T14:17:51;11.05;;;6.43;;
32788;SDS011;19141;48.980;8.410;2023-03-01T14:20:28;8.90;;;5.30;;
32788;SDS011;19141;48.980;8.410;2023-03-01T14:22:58;9.93;;;6.18;;
32788;SDS011;19141;48.980;8.410;2023-03-01T14:27:57;9.15;;;6.13;;
32788;SDS011;19141;48.980;8.410;2023-03-01T14:30:42;11.00;;;6.70;;
32788;SDS011;19141;48.980;8.410;2023-03-01T14:35:51;7.78;;;5.07;;
32788;SDS011;19141;48.980;8.410;2023-03-01T14:38:22;11.30;;;6.65;;
32788;SDS011;19141;48.980;8.410;2023-03-01T14:40:54;9.43;;;5.82;;
32788;SDS011;19141;48.980;8.410;2023-03-01T14:43:23;10.68;;;6.43;;
32788;SDS011;19141;48.980;8.410;2023-03-01T14:45:51;8.85;;;5.63;;
32788;SDS011;19141;48.980;8.410;2023-03-01T14:48:16;7.95;;;5.40;;
32788;SDS011;19141;48.980;8.410;2023-03-01T14:50:43;9.05;;;5.20;;
32788;SDS011;19141;48.980;8.410;2023-03-01T14:53:20;13.13;;;6.43;;
32788;SDS011;19141;48.980;8.410;2023-03-01T14:55:50;8.75;;;5.85;;
32788;SDS011;19141;48.980;8.410;2023-03-01T14:58:20;9.05;;;5.80;;
32788;SDS011;19141;48.980;8.410;2023-03-01T15:00:50;9.63;;;5.57;;
32788;SDS011;19141;48.980;8.410;2023-03-01T15:05:50;9.45;;;5.93;;
32788;SDS011;19141;48.980;8.410;2023-03-01T15:08:20;10.63;;;6.30;;
32788;SDS011;19141;48.980;8.410;2023-03-01T15:13:41;9.27;;;5.85;;
32788;SDS011;19141;48.980;8.410;2023-03-01T15:18:44;12.70;;;6.13;;
32788;SDS011;19141;48.980;8.410;2023-03-01T15:21:15;9.40;;;5.60;;
32788;SDS011;19141;48.980;8.410;2023-03-01T15:23:41;10.40;;;5.13;;
32788;SDS011;19141;48.980;8.410;2023-03-01T15:26:24;12.77;;;5.57;;
32788;SDS011;19141;48.980;8.410;2023-03-01T15:28:53;8.63;;;5.82;;
32788;SDS011;19141;48.980;8.410;2023-03-01T15:31:27;10.75;;;5.65;;
32788;SDS011;19141;48.980;8.410;2023-03-01T15:36:47;7.68;;;4.70;;
32788;SDS011;19141;48.980;8.410;2023-03-01T15:39:25;11.18;;;5.28;;
32788;SDS011;19141;48.980;8.410;2023-03-01T15:42:02;10.85;;;5.15;;
32788;SDS011;19141;48.980;8.410;2023-03-01T15:44:48;10.85;;;5.78;;
32788;SDS011;19141;48.980;8.410;2023-03-01T15:47:31;10.68;;;6.50;;
32788;SDS011;19141;48.980;8.410;2023-03-01T15:49:58;7.75;;;4.60;;
32788;SDS011;19141;48.980;8.410;2023-03-01T15:52:27;10.82;;;5.97;;
32788;SDS011;19141;48.980;8.410;2023-03-01T15:54:55;11.27;;;6.07;;
32788;SDS011;19141;48.980;8.410;2023-03-01T15:57:25;9.35;;;6.13;;
32788;SDS011;19141;48.980;8.410;2023-03-01T15:59:51;10.93;;;6.53;;
32788;SDS011;19141;48.980;8.410;2023-03-01T16:02:17;9.60;;;6.03;;
32788;SDS011;19141;48.980;8.410;2023-03-01T16:04:45;7.78;;;4.43;;
32788;SDS011;19141;48.980;8.410;2023-03-01T16:07:11;8.05;;;5.32;;
32788;SDS011;19141;48.980;8.410;2023-03-01T16:09:37;9.15;;;5.55;;
32788;SDS011;19141;48.980;8.410;2023-03-01T16:12:02;8.55;;;5.72;;
32788;SDS011;19141;48.980;8.410;2023-03-01T16:14:28;9.45;;;5.70;;
32788;SDS011;19141;48.980;8.410;2023-03-01T16:16:53;10.05;;;5.43;;
32788;SDS011;19141;48.980;8.410;2023-03-01T16:19:19;9.70;;;5.30;;
32788;SDS011;19141;48.980;8.410;2023-03-01T16:21:45;11.02;;;5.70;;
32788;SDS011;19141;48.980;8.410;2023-03-01T16:24:12;9.13;;;5.80;;
32788;SDS011;19141;48.980;8.410;2023-03-01T16:26:37;12.18;;;6.28;;
32788;SDS011;19141;48.980;8.410;2023-03-01T16:29:03;9.68;;;5.90;;
32788;SDS011;19141;48.980;8.410;2023-03-01T16:31:29;11.18;;;6.13;;
32788;SDS011;19141;48.980;8.410;2023-03-01T16:33:55;7.95;;;5.15;;
32788;SDS011;19141;48.980;8.410;2023-03-01T16:36:22;9.57;;;5.28;;
32788;SDS011;19141;48.980;8.410;2023-03-01T16:38:49;10.07;;;5.40;;
32788;SDS011;19141;48.980;8.410;2023-03-01T16:41:17;9.20;;;6.10;;
32788;SDS011;19141;48.980;8.410;2023-03-01T16:43:44;9.65;;;5.45;;
32788;SDS011;19141;48.980;8.410;2023-03-01T16:46:22;7.68;;;4.90;;
32788;SDS011;19141;48.980;8.410;2023-03-01T16:51:15;6.43;;;4.25;;
32788;SDS011;19141;48.980;8.410;2023-03-01T16:53:41;8.05;;;4.78;;
32788;SDS011;19141;48.980;8.410;2023-03-01T16:56:07;8.50;;;4.50;;
32788;SDS011;19141;48.980;8.410;2023-03-01T16:58:35;14.07;;;5.78;;
32788;SDS011;19141;48.980;8.410;2023-03-01T17:01:08;8.40;;;5.07;;
32788;SDS011;19141;48.980;8.410;2023-03-01T17:03:36;8.07;;;5.43;;
32788;SDS011;19141;48.980;8.410;2023-03-01T17:06:06;8.23;;;4.70;;
32788;SDS011;19141;48.980;8.410;2023-03-01T17:08:34;7.57;;;5.85;;
32788;SDS011;19141;48.980;8.410;2023-03-01T17:11:08;11.45;;;5.80;;
32788;SDS011;19141;48.980;8.410;2023-03-01T17:13:36;8.75;;;5.00;;
32788;SDS011;19141;48.980;8.410;2023-03-01T17:16:04;10.63;;;5.13;;
32788;SDS011;19141;48.980;8.410;2023-03-01T17:18:33;9.27;;;5.45;;
32788;SDS011;19141;48.980;8.410;2023-03-01T17:20:59;8.25;;;5.18;;
32788;SDS011;19141;48.980;8.410;2023-03-01T17:23:25;9.93;;;5.20;;
32788;SDS011;19141;48.980;8.410;2023-03-01T17:25:52;6.33;;;4.57;;
32788;SDS011;19141;48.980;8.410;2023-03-01T17:28:19;9.20;;;5.78;;
32788;SDS011;19141;48.980;8.410;2023-03-01T17:30:46;10.00;;;6.00;;
32788;SDS011;19141;48.980;8.410;2023-03-01T17:33:12;9.40;;;4.95;;
32788;SDS011;19141;48.980;8.410;2023-03-01T17:35:38;9.80;;;5.35;;
32788;SDS011;19141;48.980;8.410;2023-03-01T17:38:04;7.15;;;4.72;;
32788;SDS011;19141;48.980;8.410;2023-03-01T17:40:30;9.43;;;5.28;;
32788;SDS011;19141;48.980;8.410;2023-03-01T17:42:56;11.43;;;5.43;;
32788;SDS011;19141;48.980;8.410;2023-03-01T17:45:22;9.10;;;4.80;;
32788;SDS011;19141;48.980;8.410;2023-03-01T17:47:47;9.77;;;5.18;;
32788;SDS011;19141;48.980;8.410;2023-03-01T17:50:13;8.95;;;5.00;;
32788;SDS011;19141;48.980;8.410;2023-03-01T17:52:38;9.48;;;5.82;;
32788;SDS011;19141;48.980;8.410;2023-03-01T17:55:05;11.98;;;6.22;;
32788;SDS011;19141;48.980;8.410;2023-03-01T17:57:32;14.85;;;6.35;;
32788;SDS011;19141;48.980;8.410;2023-03-01T17:59:58;10.95;;;5.70;;
32788;SDS011;19141;48.980;8.410;2023-03-01T18:02:23;9.23;;;5.90;;
32788;SDS011;19141;48.980;8.410;2023-03-01T18:04:50;9.87;;;5.27;;
32788;SDS011;19141;48.980;8.410;2023-03-01T18:07:18;9.02;;;5.22;;
32788;SDS011;19141;48.980;8.410;2023-03-01T18:09:44;9.45;;;5.22;;
32788;SDS011;19141;48.980;8.410;2023-03-01T18:12:09;9.43;;;5.25;;
32788;SDS011;19141;48.980;8.410;2023-03-01T18:14:35;8.10;;;5.05;;
32788;SDS011;19141;48.980;8.410;2023-03-01T18:17:01;9.02;;;4.93;;
32788;SDS011;19141;48.980;8.410;2023-03-01T18:19:30;10.80;;;5.38;;
32788;SDS011;19141;48.980;8.410;2023-03-01T18:21:55;8.15;;;4.90;;
32788;SDS011;19141;48.980;8.410;2023-03-01T18:24:21;9.48;;;5.38;;
32788;SDS011;19141;48.980;8.410;2023-03-01T18:26:46;8.18;;;4.70;;
32788;SDS011;19141;48.980;8.410;2023-03-01T18:29:11;9.43;;;5.18;;
32788;SDS011;19141;48.980;8.410;2023-03-01T18:31:37;9.65;;;5.00;;
32788;SDS011;19141;48.980;8.410;2023-03-01T18:34:02;8.35;;;4.65;;
32788;SDS011;19141;48.980;8.410;2023-03-01T18:36:29;8.25;;;4.95;;
32788;SDS011;19141;48.980;8.410;2023-03-01T18:38:57;8.90;;;5.38;;
32788;SDS011;19141;48.980;8.410;2023-03-01T18:41:23;9.02;;;4.88;;
32788;SDS011;19141;48.980;8.410;2023-03-01T18:43:50;10.98;;;4.50;;
32788;SDS011;19141;48.980;8.410;2023-03-01T18:46:16;9.80;;;5.55;;
32788;SDS011;19141;48.980;8.410;2023-03-01T18:48:44;9.05;;;5.47;;
32788;SDS011;19141;48.980;8.410;2023-03-01T18:51:14;11.52;;;5.28;;
32788;SDS011;19141;48.980;8.410;2023-03-01T18:53:42;8.50;;;5.25;;
32788;SDS011;19141;48.980;8.410;2023-03-01T18:56:07;10.73;;;5.00;;
32788;SDS011;19141;48.980;8.410;2023-03-01T18:58:33;10.68;;;5.18;;
32788;SDS011;19141;48.980;8.410;2023-03-01T19:00:59;12.10;;;6.22;;
32788;SDS011;19141;48.980;8.410;2023-03-01T19:03:28;10.38;;;5.68;;
32788;SDS011;19141;48.980;8.410;2023-03-01T19:05:54;7.93;;;4.53;;
32788;SDS011;19141;48.980;8.410;2023-03-01T19:08:21;9.18;;;5.32;;
32788;SDS011;19141;48.980;8.410;2023-03-01T19:10:53;8.90;;;4.93;;
32788;SDS011;19141;48.980;8.410;2023-03-01T19:13:22;8.82;;;5.20;;
32788;SDS011;19141;48.980;8.410;2023-03-01T19:15:48;9.80;;;5.53;;
32788;SDS011;19141;48.980;8.410;2023-03-01T19:18:13;9.98;;;5.55;;
32788;SDS011;19141;48.980;8.410;2023-03-01T19:20:39;9.95;;;5.10;;
32788;SDS011;19141;48.980;8.410;2023-03-01T19:23:04;11.32;;;5.57;;
32788;SDS011;19141;48.980;8.410;2023-03-01T19:25:29;10.43;;;5.38;;
32788;SDS011;19141;48.980;8.410;2023-03-01T19:27:55;8.23;;;5.22;;
32788;SDS011;19141;48.980;8.410;2023-03-01T19:30:20;7.57;;;4.82;;
32788;SDS011;19141;48.980;8.410;2023-03-01T19:32:47;8.98;;;4.80;;
32788;SDS011;19141;48.980;8.410;2023-03-01T19:35:12;8.05;;;5.30;;
32788;SDS011;19141;48.980;8.410;2023-03-01T19:37:38;11.82;;;5.28;;
32788;SDS011;19141;48.980;8.410;2023-03-01T19:40:03;11.45;;;4.70;;
32788;SDS011;19141;48.980;8.410;2023-03-01T19:42:29;8.80;;;5.22;;
32788;SDS011;19141;48.980;8.410;2023-03-01T19:44:55;10.15;;;5.95;;
32788;SDS011;19141;48.980;8.410;2023-03-01T19:47:20;11.55;;;5.13;;
32788;SDS011;19141;48.980;8.410;2023-03-01T19:49:46;9.52;;;5.18;;
32788;SDS011;19141;48.980;8.410;2023-03-01T19:52:11;7.85;;;5.10;;
32788;SDS011;19141;48.980;8.410;2023-03-01T19:54:36;10.75;;;5.45;;
32788;SDS011;19141;48.980;8.410;2023-03-01T19:57:02;10.25;;;5.55;;
32788;SDS011;19141;48.980;8.410;2023-03-01T19:59:27;7.93;;;4.80;;
32788;SDS011;19141;48.980;8.410;2023-03-01T20:01:53;12.98;;;5.25;;
32788;SDS011;19141;48.980;8.410;2023-03-01T20:04:20;9.20;;;4.95;;
32788;SDS011;19141;48.980;8.410;2023-03-01T20:06:46;12.55;;;5.78;;
32788;SDS011;19141;48.980;8.410;2023-03-01T20:09:12;10.13;;;6.15;;
32788;SDS011;19141;48.980;8.410;2023-03-01T20:11:38;11.10;;;5.18;;
32788;SDS011;19141;48.980;8.410;2023-03-01T20:16:34;8.20;;;5.72;;
32788;SDS011;19141;48.980;8.410;2023-03-01T20:19:00;9.73;;;6.07;;
32788;SDS011;19141;48.980;8.410;2023-03-01T20:21:26;8.95;;;5.30;;
32788;SDS011;19141;48.980;8.410;2023-03-01T20:23:52;9.38;;;4.55;;
32788;SDS011;19141;48.980;8.410;2023-03-01T20:26:18;9.10;;;5.38;;
32788;SDS011;19141;48.980;8.410;2023-03-01T20:28:45;11.35;;;6.22;;
32788;SDS011;19141;48.980;8.410;2023-03-01T20:31:13;9.82;;;6.22;;
32788;SDS011;19141;48.980;8.410;2023-03-01T20:33:39;12.10;;;5.95;;
32788;SDS011;19141;48.980;8.410;2023-03-01T20:36:06;9.75;;;5.00;;
32788;SDS011;19141;48.980;8.410;2023-03-01T20:38:32;9.77;;;5.55;;
32788;SDS011;19141;48.980;8.410;2023-03-01T20:40:58;7.60;;;4.97;;
32788;SDS011;19141;48.980;8.410;2023-03-01T20:43:28;12.23;;;4.68;;
32788;SDS011;19141;48.980;8.410;2023-03-01T20:45:54;10.00;;;5.40;;
32788;SDS011;19141;48.980;8.410;2023-03-01T20:48:19;8.73;;;5.05;;
32788;SDS011;19141;48.980;8.410;2023-03-01T20:50:45;8.10;;;4.38;;
32788;SDS011;19141;48.980;8.410;2023-03-01T20:53:11;10.00;;;6.22;;
32788;SDS011;19141;48.980;8.410;2023-03-01T20:55:36;11.07;;;4.50;;
32788;SDS011;19141;48.980;8.410;2023-03-01T20:58:02;13.38;;;5.88;;
32788;SDS011;19141;48.980;8.410;2023-03-01T21:00:27;9.82;;;6.20;;
32788;SDS011;19141;48.980;8.410;2023-03-01T21:02:53;11.32;;;5.82;;
32788;SDS011;19141;48.980;8.410;2023-03-01T21:05:19;11.00;;;5.07;;
32788;SDS011;19141;48.980;8.410;2023-03-01T21:07:44;7.65;;;4.90;;
32788;SDS011;19141;48.980;8.410;2023-03-01T21:10:11;8.60;;;4.53;;
32788;SDS011;19141;48.980;8.410;2023-03-01T21:12:36;10.23;;;5.18;;
32788;SDS011;19141;48.980;8.410;2023-03-01T21:15:02;10.98;;;5.97;;
32788;SDS011;19141;48.980;8.410;2023-03-01T21:17:27;8.68;;;5.78;;
32788;SDS011;19141;48.980;8.410;2023-03-01T21:19:53;10.00;;;4.95;;
32788;SDS011;19141;48.980;8.410;2023-03-01T21:22:18;8.80;;;4.78;;
32788;SDS011;19141;48.980;8.410;2023-03-01T21:24:43;7.20;;;4.63;;
32788;SDS011;19141;48.980;8.410;2023-03-01T21:27:09;11.20;;;5.75;;
32788;SDS011;19141;48.980;8.410;2023-03-01T21:29:38;9.10;;;5.45;;
32788;SDS011;19141;48.980;8.410;2023-03-01T21:32:05;7.30;;;5.82;;
32788;SDS011;19141;48.980;8.410;2023-03-01T21:34:31;10.48;;;5.85;;
32788;SDS011;19141;48.980;8.410;2023-03-01T21:36:58;10.45;;;5.40;;
32788;SDS011;19141;48.980;8.410;2023-03-01T21:39:23;9.82;;;5.50;;
32788;SDS011;19141;48.980;8.410;2023-03-01T21:41:53;10.82;;;6.03;;
32788;SDS011;19141;48.980;8.410;2023-03-01T21:44:20;8.05;;;5.05;;
32788;SDS011;19141;48.980;8.410;2023-03-01T21:46:47;10.27;;;5.03;;
32788;SDS011;19141;48.980;8.410;2023-03-01T21:49:12;6.50;;;4.38;;
32788;SDS011;19141;48.980;8.410;2023-03-01T21:51:37;8.40;;;5.30;;
32788;SDS011;19141;48.980;8.410;2023-03-01T21:54:03;14.10;;;6.05;;
32788;SDS011;19141;48.980;8.410;2023-03-01T21:56:30;8.52;;;5.07;;
32788;SDS011;19141;48.980;8.410;2023-03-01T21:58:58;9.70;;;5.25;;
32788;SDS011;19141;48.980;8.410;2023-03-01T22:01:25;11.07;;;5.78;;
32788;SDS011;19141;48.980;8.410;2023-03-01T22:03:51;8.05;;;4.05;;
32788;SDS011;19141;48.980;8.410;2023-03-01T22:06:21;6.75;;;4.93;;